createdAt,value
2023-01-11T00:01:57.936Z,7.15
2023-01-11T00:04:30.436Z,7.57
2023-01-11T00:06:58.306Z,12.15
2023-01-11T00:09:25.600Z,8.25
2023-01-11T00:11:52.823Z,7.65
2023-01-11T00:14:20.045Z,7.20
2023-01-11T00:16:47.293Z,10.05
2023-01-11T00:19:14.620Z,9.95
2023-01-11T00:21:42.025Z,12.15
2023-01-11T00:24:09.257Z,15.20
2023-01-11T00:26:36.507Z,5.47
2023-01-11T00:29:04.426Z,16.80
2023-01-11T00:31:31.847Z,14.70
2023-01-11T00:33:59.111Z,7.45
2023-01-11T00:36:26.406Z,9.13
2023-01-11T00:38:55.441Z,10.35
2023-01-11T00:41:42.264Z,8.93
2023-01-11T00:44:31.407Z,11.38
2023-01-11T00:47:17.190Z,10.18
2023-01-11T00:49:45.175Z,8.95
2023-01-11T00:52:12.544Z,10.07
2023-01-11T00:54:41.243Z,8.13
2023-01-11T00:57:08.767Z,13.45
2023-01-11T00:59:39.643Z,7.22
2023-01-11T01:02:08.274Z,7.22
2023-01-11T01:04:35.913Z,7.82
2023-01-11T01:07:03.524Z,10.05
2023-01-11T01:09:30.980Z,13.55
2023-01-11T01:11:58.714Z,7.88
2023-01-11T01:14:26.100Z,11.90
2023-01-11T01:17:04.831Z,10.63
2023-01-11T01:19:32.358Z,15.15
2023-01-11T01:22:00.150Z,9.65
2023-01-11T01:24:29.312Z,13.05
2023-01-11T01:26:57.640Z,7.35
2023-01-11T01:29:25.832Z,8.25
2023-01-11T01:31:53.039Z,14.80
2023-01-11T01:34:20.221Z,11.95
2023-01-11T01:36:47.416Z,15.65
2023-01-11T01:39:14.662Z,12.30
2023-01-11T01:41:42.001Z,13.07
2023-01-11T01:44:47.000Z,9.10
2023-01-11T01:47:15.635Z,13.98
2023-01-11T01:49:44.997Z,12.52
2023-01-11T01:52:12.962Z,12.00
2023-01-11T01:54:44.476Z,8.85
2023-01-11T01:57:19.410Z,9.98
2023-01-11T01:59:51.767Z,10.27
2023-01-11T02:02:24.292Z,9.68
2023-01-11T02:04:53.307Z,10.32
2023-01-11T02:07:26.672Z,13.02
2023-01-11T02:10:08.172Z,17.27
2023-01-11T02:12:50.401Z,29.38
2023-01-11T02:15:20.746Z,11.27
2023-01-11T02:17:48.157Z,8.55
2023-01-11T02:20:21.367Z,10.80
2023-01-11T02:23:10.587Z,14.88
2023-01-11T02:26:08.670Z,11.15
2023-01-11T02:29:21.104Z,8.48
2023-01-11T02:31:57.164Z,19.60
2023-01-11T02:34:30.227Z,17.55
2023-01-11T02:37:51.431Z,13.77
2023-01-11T02:40:30.359Z,18.65
2023-01-11T02:43:34.938Z,20.60
2023-01-11T02:46:22.905Z,18.25
2023-01-11T02:49:10.945Z,15.48
2023-01-11T02:51:47.294Z,11.45
2023-01-11T02:54:18.677Z,12.30
2023-01-11T02:56:49.388Z,15.27
2023-01-11T02:59:20.546Z,18.20
2023-01-11T03:01:53.293Z,17.40
2023-01-11T03:04:31.115Z,11.73
2023-01-11T03:07:26.367Z,13.85
2023-01-11T03:10:03.612Z,14.50
2023-01-11T03:12:56.769Z,20.70
2023-01-11T03:16:14.754Z,18.63
2023-01-11T03:18:50.910Z,14.93
2023-01-11T03:21:26.873Z,12.85
2023-01-11T03:24:21.374Z,22.70
2023-01-11T03:27:27.113Z,17.05
2023-01-11T03:30:16.034Z,16.13
2023-01-11T03:32:51.870Z,22.38
2023-01-11T03:35:31.407Z,20.70
2023-01-11T03:38:14.647Z,14.88
2023-01-11T03:40:48.237Z,13.43
2023-01-11T03:43:18.473Z,21.83
2023-01-11T03:46:16.102Z,18.63
2023-01-11T03:48:52.927Z,18.88
2023-01-11T03:51:27.352Z,12.25
2023-01-11T03:53:59.057Z,10.38
2023-01-11T03:56:35.868Z,18.30
2023-01-11T03:59:03.553Z,17.05
2023-01-11T04:01:31.074Z,17.77
2023-01-11T04:03:58.437Z,23.30
2023-01-11T04:06:25.935Z,18.23
2023-01-11T04:08:53.179Z,13.70
2023-01-11T04:11:20.388Z,15.95
2023-01-11T04:13:47.570Z,19.45
2023-01-11T04:16:14.846Z,16.23
2023-01-11T04:18:42.150Z,20.48
2023-01-11T04:21:09.609Z,12.90
2023-01-11T04:23:36.965Z,21.58
2023-01-11T04:26:04.352Z,23.88
2023-01-11T04:28:31.599Z,23.60
2023-01-11T04:30:58.799Z,22.05
2023-01-11T04:33:26.030Z,21.73
2023-01-11T04:35:53.263Z,24.05
2023-01-11T04:38:20.530Z,20.60
2023-01-11T04:40:48.480Z,14.85
2023-01-11T04:43:15.659Z,14.15
2023-01-11T04:45:42.859Z,16.88
2023-01-11T04:48:10.116Z,21.75
2023-01-11T04:50:37.592Z,23.40
2023-01-11T04:53:04.962Z,11.30
2023-01-11T04:55:32.308Z,19.55
2023-01-11T04:57:59.537Z,25.85
2023-01-11T05:00:26.881Z,29.80
2023-01-11T05:02:54.143Z,21.38
2023-01-11T05:05:21.456Z,20.35
2023-01-11T05:07:49.361Z,16.58
2023-01-11T05:10:16.879Z,19.45
2023-01-11T05:12:44.767Z,17.33
2023-01-11T05:15:12.809Z,18.20
2023-01-11T05:17:40.256Z,16.80
2023-01-11T05:20:08.383Z,19.55
2023-01-11T05:22:35.707Z,13.10
2023-01-11T05:25:03.335Z,21.20
2023-01-11T05:27:30.725Z,17.95
2023-01-11T05:29:58.107Z,21.58
2023-01-11T05:32:25.535Z,23.45
2023-01-11T05:34:52.897Z,20.83
2023-01-11T05:37:20.298Z,20.38
2023-01-11T05:39:47.528Z,14.35
2023-01-11T05:42:14.874Z,23.95
2023-01-11T05:45:00.394Z,25.95
2023-01-11T05:47:27.687Z,24.33
2023-01-11T05:49:54.939Z,17.33
2023-01-11T05:52:22.181Z,20.73
2023-01-11T05:54:49.470Z,19.27
2023-01-11T05:57:16.804Z,16.90
2023-01-11T05:59:44.411Z,16.85
2023-01-11T06:02:11.832Z,29.63
2023-01-11T06:04:39.121Z,17.63
2023-01-11T06:07:07.035Z,19.73
2023-01-11T06:09:34.458Z,23.90
2023-01-11T06:12:01.952Z,16.10
2023-01-11T06:14:29.420Z,28.42
2023-01-11T06:16:57.034Z,24.35
2023-01-11T06:19:24.418Z,28.92
2023-01-11T06:21:51.693Z,16.50
2023-01-11T06:24:19.028Z,13.45
2023-01-11T06:26:46.381Z,28.25
2023-01-11T06:29:14.828Z,20.88
2023-01-11T06:31:42.215Z,15.40
2023-01-11T06:34:10.287Z,24.75
2023-01-11T06:36:38.380Z,22.73
2023-01-11T06:39:06.270Z,21.70
2023-01-11T06:41:33.646Z,23.63
2023-01-11T06:44:00.902Z,24.75
2023-01-11T06:46:29.207Z,23.30
2023-01-11T06:48:56.565Z,30.60
2023-01-11T06:51:23.971Z,26.23
2023-01-11T06:53:51.181Z,23.55
2023-01-11T06:56:21.396Z,10.60
2023-01-11T06:58:48.870Z,24.42
2023-01-11T07:01:16.851Z,24.70
2023-01-11T07:03:45.527Z,10.73
2023-01-11T07:06:13.923Z,26.95
2023-01-11T07:08:42.593Z,16.42
2023-01-11T07:11:10.050Z,18.70
2023-01-11T07:13:37.402Z,16.63
2023-01-11T07:16:04.996Z,11.02
2023-01-11T07:18:33.489Z,22.17
2023-01-11T07:21:00.778Z,25.17
2023-01-11T07:23:28.121Z,21.08
2023-01-11T07:25:55.612Z,19.77
2023-01-11T07:28:23.048Z,22.30
2023-01-11T07:30:58.718Z,30.02
2023-01-11T07:33:26.906Z,22.98
2023-01-11T07:35:54.429Z,26.20
2023-01-11T07:38:22.245Z,21.63
2023-01-11T07:40:49.692Z,21.83
2023-01-11T07:43:19.429Z,25.90
2023-01-11T07:45:49.807Z,28.02
2023-01-11T07:48:27.167Z,36.22
2023-01-11T07:50:55.049Z,18.00
2023-01-11T07:53:26.085Z,26.70
2023-01-11T07:55:55.817Z,23.67
2023-01-11T07:58:23.598Z,15.35
2023-01-11T08:00:50.983Z,20.13
2023-01-11T08:03:18.309Z,23.30
2023-01-11T08:05:51.517Z,16.65
2023-01-11T08:08:18.908Z,18.15
2023-01-11T08:10:46.205Z,22.70
2023-01-11T08:13:33.251Z,26.17
2023-01-11T08:16:00.720Z,20.50
2023-01-11T08:18:28.026Z,18.40
2023-01-11T08:20:55.257Z,13.80
2023-01-11T08:23:22.547Z,12.63
2023-01-11T08:25:49.931Z,11.02
2023-01-11T08:28:17.269Z,20.35
2023-01-11T08:30:44.913Z,20.23
2023-01-11T08:33:12.367Z,22.98
2023-01-11T08:35:40.253Z,12.55
2023-01-11T08:38:08.267Z,12.40
2023-01-11T08:40:35.864Z,13.05
2023-01-11T08:43:03.517Z,13.23
2023-01-11T08:45:30.746Z,16.23
2023-01-11T08:48:00.226Z,14.35
2023-01-11T08:50:27.688Z,16.50
2023-01-11T08:52:54.955Z,12.60
2023-01-11T08:55:22.307Z,13.05
2023-01-11T08:57:49.712Z,13.27
2023-01-11T09:00:17.623Z,27.83
2023-01-11T09:02:45.925Z,14.68
2023-01-11T09:05:13.514Z,17.85
2023-01-11T09:07:40.878Z,16.17
2023-01-11T09:10:08.733Z,11.52
2023-01-11T09:12:36.176Z,17.27
2023-01-11T09:15:06.026Z,14.35
2023-01-11T09:17:33.641Z,19.98
2023-01-11T09:20:00.963Z,19.40
2023-01-11T09:22:28.426Z,14.38
2023-01-11T09:24:59.020Z,19.25
2023-01-11T09:27:26.649Z,25.08
2023-01-11T09:29:53.966Z,15.55
2023-01-11T09:32:21.484Z,17.83
2023-01-11T09:34:49.865Z,20.83
2023-01-11T09:37:17.258Z,19.63
2023-01-11T09:39:44.815Z,23.63
2023-01-11T09:42:27.175Z,12.77
2023-01-11T09:44:57.444Z,24.00
2023-01-11T09:47:31.891Z,20.25
2023-01-11T09:52:38.275Z,20.52
2023-01-11T09:55:07.278Z,14.57
2023-01-11T09:57:38.407Z,19.80
2023-01-11T10:00:16.615Z,19.92
2023-01-11T10:02:51.541Z,38.38
2023-01-11T10:05:29.830Z,29.35
2023-01-11T10:18:22.261Z,19.92
2023-01-11T10:18:30.324Z,24.80
2023-01-11T10:20:47.568Z,18.15
2023-01-11T10:23:25.588Z,14.82
2023-01-11T10:25:56.759Z,25.15
2023-01-11T10:28:32.034Z,18.90
2023-01-11T10:31:29.924Z,16.17
2023-01-11T10:34:16.314Z,14.38
2023-01-11T10:37:20.360Z,21.85
2023-01-11T10:40:19.672Z,11.77
2023-01-11T10:43:20.700Z,21.35
2023-01-11T10:45:53.034Z,13.73
2023-01-11T10:48:33.369Z,13.43
2023-01-11T10:51:19.744Z,18.33
2023-01-11T10:54:14.603Z,27.33
2023-01-11T10:57:05.299Z,12.68
2023-01-11T10:59:59.295Z,12.27
2023-01-11T11:02:29.382Z,17.27
2023-01-11T11:05:26.272Z,16.77
2023-01-11T11:08:07.949Z,17.73
2023-01-11T11:11:03.049Z,11.82
2023-01-11T11:13:45.353Z,10.52
2023-01-11T11:16:24.832Z,14.93
2023-01-11T11:18:53.903Z,15.65
2023-01-11T11:21:31.088Z,26.55
2023-01-11T11:24:09.581Z,14.65
2023-01-11T11:26:43.140Z,11.77
2023-01-11T11:29:19.473Z,8.55
2023-01-11T11:31:48.480Z,17.33
2023-01-11T11:34:18.253Z,14.45
2023-01-11T11:36:48.879Z,11.40
2023-01-11T11:39:19.228Z,17.73
2023-01-11T11:41:49.393Z,9.98
2023-01-11T11:44:26.861Z,11.95
2023-01-11T11:47:01.634Z,13.57
2023-01-11T11:49:34.435Z,8.15
2023-01-11T11:52:03.966Z,13.45
2023-01-11T11:54:35.119Z,12.98
2023-01-11T11:57:22.210Z,9.52
2023-01-11T11:59:55.335Z,5.28
2023-01-11T12:02:30.418Z,7.47
2023-01-11T12:05:00.716Z,16.52
2023-01-11T12:07:38.061Z,9.90
2023-01-11T12:10:22.339Z,14.40
2023-01-11T12:13:01.437Z,11.15
2023-01-11T12:15:34.004Z,8.88
2023-01-11T12:18:52.836Z,18.67
2023-01-11T12:21:23.430Z,13.60
2023-01-11T12:24:23.914Z,17.80
2023-01-11T12:27:38.809Z,9.07
2023-01-11T12:30:24.219Z,15.18
2023-01-11T12:33:12.591Z,12.82
2023-01-11T12:36:13.908Z,9.60
2023-01-11T12:39:02.964Z,19.42
2023-01-11T12:41:50.417Z,10.43
2023-01-11T12:44:23.656Z,13.70
2023-01-11T12:47:39.020Z,9.02
2023-01-11T12:50:12.113Z,6.70
2023-01-11T12:53:05.037Z,10.88
2023-01-11T12:55:51.533Z,9.80
2023-01-11T12:58:45.778Z,11.95
2023-01-11T13:01:24.837Z,8.75
2023-01-11T13:04:12.216Z,12.10
2023-01-11T13:06:42.587Z,9.50
2023-01-11T13:09:24.536Z,14.57
2023-01-11T13:12:04.688Z,12.23
2023-01-11T13:14:34.833Z,14.07
2023-01-11T13:17:39.252Z,13.52
2023-01-11T13:20:59.240Z,15.68
2023-01-11T13:23:43.661Z,12.77
2023-01-11T13:26:24.940Z,14.18
2023-01-11T13:29:06.654Z,15.13
2023-01-11T13:31:37.694Z,11.40
2023-01-11T13:34:12.279Z,15.40
2023-01-11T13:39:29.873Z,24.60
2023-01-11T13:42:04.382Z,17.85
2023-01-11T13:47:14.436Z,22.70
2023-01-11T13:49:56.912Z,11.68
2023-01-11T13:52:45.334Z,8.73
2023-01-11T13:55:29.909Z,13.90
2023-01-11T13:58:06.413Z,6.75
2023-01-11T14:00:38.396Z,5.95
2023-01-11T14:03:32.518Z,2.80
2023-01-11T14:06:21.133Z,3.42
2023-01-11T14:09:00.582Z,1.50
2023-01-11T14:11:36.188Z,5.60
2023-01-11T14:14:17.540Z,9.95
2023-01-11T14:16:47.654Z,13.80
2023-01-11T14:19:49.782Z,11.85
2023-01-11T14:22:38.839Z,9.05
2023-01-11T14:25:27.529Z,13.43
2023-01-11T14:28:26.900Z,16.65
2023-01-11T14:30:57.178Z,9.18
2023-01-11T14:33:58.249Z,9.60
2023-01-11T14:37:03.040Z,9.60
2023-01-11T14:39:54.832Z,2.93
2023-01-11T14:42:49.883Z,4.90
2023-01-11T14:45:24.347Z,6.07
2023-01-11T14:50:56.709Z,9.82
2023-01-11T14:53:29.895Z,7.07
2023-01-11T14:55:57.293Z,6.32
2023-01-11T14:58:27.424Z,3.42
2023-01-11T15:00:54.652Z,13.43
2023-01-11T15:03:21.871Z,12.23
2023-01-11T15:05:55.701Z,8.20
2023-01-11T15:08:26.039Z,16.63
2023-01-11T15:11:00.191Z,10.55
2023-01-11T15:13:56.299Z,14.90
2023-01-11T15:16:45.723Z,18.48
2023-01-11T15:19:34.337Z,17.20
2023-01-11T15:22:04.350Z,27.17
2023-01-11T15:24:38.301Z,24.13
2023-01-11T15:27:06.156Z,20.17
2023-01-11T15:29:41.556Z,26.65
2023-01-11T15:32:26.091Z,16.85
2023-01-11T15:34:53.902Z,22.90
2023-01-11T15:37:54.280Z,22.98
2023-01-11T15:40:26.160Z,19.63
2023-01-11T15:43:14.507Z,21.63
2023-01-11T15:46:06.157Z,30.15
2023-01-11T15:48:56.539Z,33.88
2023-01-11T15:51:26.863Z,32.72
2023-01-11T15:54:13.972Z,23.27
2023-01-11T15:57:04.521Z,31.42
2023-01-11T15:59:34.700Z,24.15
2023-01-11T16:02:13.816Z,26.45
2023-01-11T16:05:00.819Z,20.63
2023-01-11T16:07:33.871Z,8.68
2023-01-11T16:10:18.823Z,15.73
2023-01-11T16:15:37.365Z,21.52
2023-01-11T16:18:18.341Z,10.20
2023-01-11T16:21:26.044Z,13.05
2023-01-11T16:23:55.520Z,18.70
2023-01-11T16:26:23.188Z,15.85
2023-01-11T16:28:53.297Z,14.02
2023-01-11T16:31:20.936Z,11.85
2023-01-11T16:33:49.845Z,7.50
2023-01-11T16:36:21.310Z,9.32
2023-01-11T16:39:02.191Z,7.05
2023-01-11T16:41:46.464Z,4.78
2023-01-11T16:44:41.952Z,6.63
2023-01-11T16:47:17.711Z,5.63
2023-01-11T16:49:50.010Z,6.55
2023-01-11T16:52:37.104Z,8.18
2023-01-11T16:55:16.023Z,4.40
2023-01-11T16:57:48.914Z,6.20
2023-01-11T17:00:29.036Z,3.80
2023-01-11T17:03:36.703Z,5.07
2023-01-11T17:06:12.741Z,13.63
2023-01-11T17:08:43.164Z,9.93
2023-01-11T17:11:20.418Z,6.72
2023-01-11T17:14:24.819Z,3.33
2023-01-11T17:16:59.878Z,5.53
2023-01-11T17:19:32.619Z,7.10
2023-01-11T17:22:22.067Z,7.22
2023-01-11T17:24:55.923Z,5.70
2023-01-11T17:27:30.343Z,9.38
2023-01-11T17:29:58.454Z,11.68
2023-01-11T17:32:36.800Z,9.55
2023-01-11T17:35:16.377Z,7.57
2023-01-11T17:37:46.091Z,13.57
2023-01-11T17:40:36.047Z,9.85
2023-01-11T17:43:45.353Z,12.45
2023-01-11T17:46:26.898Z,17.38
2023-01-11T17:48:59.804Z,17.42
2023-01-11T17:51:31.575Z,11.45
2023-01-11T17:53:59.448Z,15.27
2023-01-11T17:56:32.745Z,7.70
2023-01-11T17:59:18.584Z,14.77
2023-01-11T18:01:54.006Z,12.52
2023-01-11T18:04:23.600Z,11.18
2023-01-11T18:06:55.223Z,7.80
2023-01-11T18:09:29.546Z,6.22
2023-01-11T18:12:23.004Z,20.80
2023-01-11T18:14:52.835Z,5.18
2023-01-11T18:17:32.555Z,9.00
2023-01-11T18:20:01.191Z,6.57
2023-01-11T18:22:37.145Z,7.85
2023-01-11T18:25:19.838Z,10.20
2023-01-11T18:27:47.727Z,7.28
2023-01-11T18:30:33.435Z,7.53
2023-01-11T18:33:03.627Z,8.10
2023-01-11T18:35:31.232Z,7.25
2023-01-11T18:37:58.431Z,13.02
2023-01-11T18:40:25.691Z,8.65
2023-01-11T18:42:53.989Z,18.23
2023-01-11T18:45:22.036Z,12.60
2023-01-11T18:47:49.416Z,12.30
2023-01-11T18:50:19.440Z,17.83
2023-01-11T18:52:47.036Z,12.90
2023-01-11T18:55:15.106Z,13.30
2023-01-11T18:57:42.528Z,14.48
2023-01-11T19:00:14.855Z,19.35
2023-01-11T19:02:44.013Z,25.95
2023-01-11T19:05:14.343Z,16.55
2023-01-11T19:07:41.717Z,24.33
2023-01-11T19:10:10.919Z,24.40
2023-01-11T19:12:38.283Z,20.73
2023-01-11T19:15:05.936Z,25.77
2023-01-11T19:17:33.401Z,22.10
2023-01-11T19:20:01.031Z,18.40
2023-01-11T19:22:28.268Z,21.40
2023-01-11T19:24:55.637Z,22.80
2023-01-11T19:27:23.368Z,16.08
2023-01-11T19:29:51.703Z,22.77
2023-01-11T19:32:23.647Z,28.48
2023-01-11T19:34:52.277Z,17.98
2023-01-11T19:37:19.803Z,33.65
2023-01-11T19:39:47.040Z,21.38
2023-01-11T19:42:14.601Z,21.52
2023-01-11T19:44:42.231Z,22.52
2023-01-11T19:47:13.520Z,11.52
2023-01-11T19:49:41.909Z,30.45
2023-01-11T19:52:14.646Z,18.20
2023-01-11T19:54:44.172Z,18.30
2023-01-11T19:57:14.570Z,20.40
2023-01-11T19:59:42.725Z,16.13
2023-01-11T20:02:14.338Z,17.40
2023-01-11T20:04:44.219Z,15.68
2023-01-11T20:07:13.337Z,18.08
2023-01-11T20:09:41.082Z,12.95
2023-01-11T20:12:11.733Z,16.38
2023-01-11T20:14:43.155Z,21.40
2023-01-11T20:17:10.855Z,16.38
2023-01-11T20:19:38.573Z,14.57
2023-01-11T20:22:06.099Z,14.82
2023-01-11T20:24:33.609Z,27.77
2023-01-11T20:27:02.961Z,19.63
2023-01-11T20:29:30.565Z,22.60
2023-01-11T20:32:13.398Z,15.98
2023-01-11T20:34:45.699Z,20.27
2023-01-11T20:37:13.191Z,27.50
2023-01-11T20:39:40.711Z,23.35
2023-01-11T20:42:09.076Z,31.42
2023-01-11T20:44:36.333Z,21.67
2023-01-11T20:47:03.644Z,22.05
2023-01-11T20:49:31.093Z,27.40
2023-01-11T20:51:58.717Z,23.00
2023-01-11T20:54:26.189Z,27.17
2023-01-11T20:56:54.098Z,19.92
2023-01-11T20:59:21.610Z,20.65
2023-01-11T21:01:50.160Z,34.00
2023-01-11T21:04:18.228Z,28.73
2023-01-11T21:06:48.424Z,27.20
2023-01-11T21:09:17.570Z,31.83
2023-01-11T21:11:52.588Z,31.65
2023-01-11T21:14:20.828Z,31.63
2023-01-11T21:16:48.803Z,32.50
2023-01-11T21:19:18.634Z,35.05
2023-01-11T21:21:46.680Z,30.08
2023-01-11T21:24:16.186Z,31.50
2023-01-11T21:26:45.388Z,29.75
2023-01-11T21:29:13.386Z,24.80
2023-01-11T21:31:41.877Z,36.90
2023-01-11T21:34:12.030Z,47.67
2023-01-11T21:36:40.433Z,33.83
2023-01-11T21:39:09.446Z,27.65
2023-01-11T21:41:55.272Z,29.55
2023-01-11T21:44:27.290Z,33.35
2023-01-11T21:46:55.719Z,34.15
2023-01-11T21:49:24.396Z,41.88
2023-01-11T21:51:52.061Z,39.80
2023-01-11T21:54:19.908Z,31.23
2023-01-11T21:56:48.262Z,26.92
2023-01-11T21:59:16.272Z,32.00
2023-01-11T22:01:45.939Z,32.25
2023-01-11T22:04:16.227Z,27.00
2023-01-11T22:06:51.270Z,21.80
2023-01-11T22:09:21.422Z,26.00
2023-01-11T22:11:52.318Z,26.00
2023-01-11T22:14:19.904Z,19.75
2023-01-11T22:16:47.716Z,24.35
2023-01-11T22:19:15.397Z,35.08
2023-01-11T22:21:43.119Z,28.25
2023-01-11T22:24:12.429Z,41.60
2023-01-11T22:26:40.853Z,20.92
2023-01-11T22:29:12.280Z,25.55
2023-01-11T22:31:44.421Z,36.30
2023-01-11T22:34:14.057Z,26.05
2023-01-11T22:36:43.237Z,24.00
2023-01-11T22:39:12.675Z,31.65
2023-01-11T22:41:40.677Z,21.70
2023-01-11T22:44:09.550Z,23.73
2023-01-11T22:46:37.624Z,18.95
2023-01-11T22:49:06.458Z,29.48
2023-01-11T22:51:34.395Z,21.65
2023-01-11T22:54:01.984Z,18.88
2023-01-11T22:56:30.224Z,13.07
2023-01-11T22:58:58.075Z,31.25
2023-01-11T23:01:33.741Z,28.25
2023-01-11T23:04:01.937Z,21.27
2023-01-11T23:06:40.759Z,24.20
2023-01-11T23:09:15.543Z,20.95
2023-01-11T23:12:02.278Z,28.27
2023-01-11T23:14:31.189Z,21.92
2023-01-11T23:17:10.632Z,14.32
2023-01-11T23:19:40.648Z,24.88
2023-01-11T23:22:09.432Z,13.13
2023-01-11T23:24:37.913Z,27.92
2023-01-11T23:27:05.794Z,20.58
2023-01-11T23:29:33.121Z,28.10
2023-01-11T23:32:00.600Z,15.60
2023-01-11T23:34:27.960Z,28.73
2023-01-11T23:36:55.778Z,31.08
2023-01-11T23:39:23.917Z,25.25
2023-01-11T23:42:09.686Z,22.13
2023-01-11T23:44:36.981Z,37.78
2023-01-11T23:47:23.853Z,23.30
2023-01-11T23:49:55.739Z,29.52
2023-01-11T23:52:28.214Z,25.95
2023-01-11T23:54:55.656Z,26.55
2023-01-11T23:57:24.785Z,23.77
2023-01-11T23:59:52.401Z,28.13
